Time;durP1;ratioP1;P1;durP2;ratioP2;P2;SDS_P1;SDS_P2;PMS_P1;PMS_P2;Temp;Humidity;BMP_temperature;BMP_pressure;BME280_temperature;BME280_humidity;BME280_pressure;Samples;Min_cycle;Max_cycle;Signal;HPM_P1;HPM_P2
2022/12/03 00:01:59;;;;;;;13.73;9.40;;;3.60;99.90;;;;;;4996604;28;20270;-86
2022/12/03 00:04:25;;;;;;;14.30;9.73;;;3.60;99.90;;;;;;4996982;28;20183;-86
2022/12/03 00:06:51;;;;;;;12.13;8.87;;;3.60;99.90;;;;;;4996511;28;20202;-86
2022/12/03 00:09:17;;;;;;;14.47;10.13;;;3.60;99.90;;;;;;4996702;28;20179;-86
2022/12/03 00:11:43;;;;;;;13.93;9.97;;;3.60;99.90;;;;;;5013029;28;20525;-86
2022/12/03 00:14:09;;;;;;;14.70;9.83;;;3.60;99.90;;;;;;4996236;28;20186;-86
2022/12/03 00:16:35;;;;;;;17.20;11.67;;;3.60;99.90;;;;;;4996109;28;20200;-86
2022/12/03 00:19:01;;;;;;;17.47;11.37;;;3.50;99.90;;;;;;4995436;28;20290;-86
2022/12/03 00:21:27;;;;;;;16.23;11.20;;;3.50;99.90;;;;;;4996203;28;20213;-86
2022/12/03 00:23:53;;;;;;;16.63;10.90;;;3.50;99.90;;;;;;4995988;28;20183;-86
2022/12/03 00:26:19;;;;;;;16.23;10.90;;;3.50;99.90;;;;;;4995096;28;20298;-86
2022/12/03 00:28:47;;;;;;;19.10;12.17;;;3.50;99.90;;;;;;4995755;28;20179;-86
2022/12/03 00:31:12;;;;;;;15.70;11.40;;;3.40;99.90;;;;;;4996364;28;20180;-86
2022/12/03 00:33:38;;;;;;;13.90;9.97;;;3.40;99.90;;;;;;4996130;28;20187;-86
2022/12/03 00:36:05;;;;;;;13.13;9.53;;;3.40;99.90;;;;;;4995841;28;20322;-86
2022/12/03 00:38:31;;;;;;;18.70;11.43;;;3.50;99.90;;;;;;5012429;28;20266;-86
2022/12/03 00:40:57;;;;;;;20.10;12.87;;;3.50;99.90;;;;;;4995917;28;20302;-86
2022/12/03 00:43:22;;;;;;;18.03;12.00;;;3.50;99.90;;;;;;4996164;28;20175;-86
2022/12/03 00:45:48;;;;;;;21.37;13.43;;;3.40;99.90;;;;;;4996275;28;20217;-86
2022/12/03 00:48:14;;;;;;;18.90;12.80;;;3.40;99.90;;;;;;4995980;28;20184;-86
2022/12/03 00:50:40;;;;;;;20.23;13.57;;;3.40;99.90;;;;;;4996177;28;20175;-86
2022/12/03 00:53:06;;;;;;;19.93;12.57;;;3.50;99.90;;;;;;4995983;28;20179;-86
2022/12/03 00:55:32;;;;;;;18.80;13.17;;;3.40;99.90;;;;;;4996079;28;20563;-86
2022/12/03 00:57:58;;;;;;;20.70;13.30;;;3.40;99.90;;;;;;4996025;28;20187;-86
2022/12/03 01:00:24;;;;;;;19.20;12.30;;;3.30;99.90;;;;;;4995608;28;20675;-86
2022/12/03 01:02:51;;;;;;;24.13;13.93;;;3.40;99.90;;;;;;4995546;28;20211;-86
2022/12/03 01:05:18;;;;;;;20.70;13.53;;;3.40;99.90;;;;;;5012246;28;20237;-86
2022/12/03 01:07:45;;;;;;;21.97;13.50;;;3.40;99.90;;;;;;4995374;28;20183;-86
2022/12/03 01:10:11;;;;;;;21.53;13.87;;;3.30;99.90;;;;;;4995760;28;20180;-86
2022/12/03 01:12:37;;;;;;;22.07;13.80;;;3.30;99.90;;;;;;4995413;28;20190;-86
2022/12/03 01:15:04;;;;;;;21.77;14.37;;;3.30;99.90;;;;;;5010519;28;20187;-86
2022/12/03 01:17:30;;;;;;;23.63;13.83;;;3.30;99.90;;;;;;5009986;28;20203;-86
2022/12/03 01:19:57;;;;;;;23.30;14.27;;;3.20;99.90;;;;;;4994642;28;20297;-86
2022/12/03 01:22:24;;;;;;;24.60;15.03;;;3.20;99.90;;;;;;4995855;28;20234;-86
2022/12/03 01:24:50;;;;;;;22.47;14.33;;;3.20;99.90;;;;;;4995747;28;20187;-86
2022/12/03 01:27:16;;;;;;;24.60;14.10;;;3.10;99.90;;;;;;4995533;28;20210;-86
2022/12/03 01:29:42;;;;;;;22.97;14.07;;;3.20;99.90;;;;;;4998497;28;20187;-85
2022/12/03 01:32:15;;;;;;;23.73;14.17;;;3.10;99.90;;;;;;4999793;28;20206;-86
2022/12/03 01:34:45;;;;;;;22.03;14.37;;;3.10;99.90;;;;;;5015806;28;20210;-86
2022/12/03 01:37:12;;;;;;;21.90;14.00;;;3.10;99.90;;;;;;4999294;28;20267;-85
2022/12/03 01:39:39;;;;;;;24.47;13.93;;;3.20;99.90;;;;;;4999495;28;20179;-86
2022/12/03 01:42:08;;;;;;;26.90;15.37;;;3.20;99.90;;;;;;4999801;28;20179;-86
2022/12/03 01:44:38;;;;;;;23.23;14.83;;;3.20;99.90;;;;;;4999486;28;20205;-86
2022/12/03 01:47:09;;;;;;;23.60;13.70;;;3.20;99.90;;;;;;4998698;28;20282;-86
2022/12/03 01:49:51;;;;;;;24.87;14.80;;;3.20;99.90;;;;;;4999235;28;20317;-86
2022/12/03 01:52:21;;;;;;;20.77;14.13;;;3.20;99.90;;;;;;5015339;28;20181;-86
2022/12/03 01:54:51;;;;;;;24.37;14.70;;;3.10;99.90;;;;;;5014899;28;20226;-86
2022/12/03 01:57:32;;;;;;;23.53;13.87;;;3.10;99.90;;;;;;5014539;28;20195;-85
2022/12/03 01:59:59;;;;;;;21.80;13.80;;;3.10;99.90;;;;;;4999158;28;20226;-86
2022/12/03 02:02:30;;;;;;;25.67;14.80;;;3.10;99.90;;;;;;5015380;28;20175;-86
2022/12/03 02:04:58;;;;;;;21.93;14.10;;;3.10;99.90;;;;;;4998734;28;20187;-86
2022/12/03 02:07:30;;;;;;;26.83;14.90;;;2.90;99.90;;;;;;4997894;28;20286;-86
2022/12/03 02:09:59;;;;;;;25.50;14.87;;;2.90;99.90;;;;;;4998077;28;20188;-86
2022/12/03 02:12:33;;;;;;;24.50;14.93;;;2.80;99.90;;;;;;4998974;28;20190;-86
2022/12/03 02:15:00;;;;;;;26.40;14.63;;;2.80;99.90;;;;;;4998560;28;20190;-86
2022/12/03 02:17:26;;;;;;;22.10;14.67;;;2.80;99.90;;;;;;4998745;28;20210;-86
2022/12/03 02:19:53;;;;;;;26.03;14.90;;;2.70;99.90;;;;;;4998469;28;20219;-86
2022/12/03 02:22:25;;;;;;;25.23;16.13;;;2.70;99.90;;;;;;4998764;28;20206;-86
2022/12/03 02:24:58;;;;;;;26.37;15.43;;;2.70;99.90;;;;;;5015097;28;20183;-86
2022/12/03 02:27:27;;;;;;;26.23;14.77;;;2.60;99.90;;;;;;5014452;28;20195;-86
2022/12/03 02:29:53;;;;;;;27.73;16.93;;;2.70;99.90;;;;;;5014970;28;20195;-86
2022/12/03 02:32:22;;;;;;;23.70;14.60;;;2.70;99.90;;;;;;5014489;28;20183;-86
2022/12/03 02:34:49;;;;;;;27.23;15.93;;;2.80;99.90;;;;;;5014671;28;20222;-86
2022/12/03 02:37:25;;;;;;;24.50;14.47;;;2.80;99.90;;;;;;4998179;28;20203;-85
2022/12/03 02:39:54;;;;;;;26.47;15.17;;;2.80;99.90;;;;;;4997603;28;20215;-86
2022/12/03 02:42:36;;;;;;;25.40;15.30;;;2.80;99.90;;;;;;5013668;28;20180;-86
2022/12/03 02:45:29;;;;;;;25.60;14.97;;;2.90;99.90;;;;;;4997362;28;20174;-86
2022/12/03 02:48:03;;;;;;;23.10;14.07;;;2.90;99.90;;;;;;4997708;28;20182;-86
2022/12/03 02:50:33;;;;;;;26.03;15.57;;;2.90;99.90;;;;;;5014468;28;20562;-86
2022/12/03 02:53:03;;;;;;;27.73;15.60;;;2.90;99.90;;;;;;4998036;28;20262;-86
2022/12/03 02:55:30;;;;;;;27.87;14.90;;;3.00;99.90;;;;;;5014407;28;20182;-86
2022/12/03 02:57:56;;;;;;;25.20;14.63;;;2.90;99.90;;;;;;5014248;28;20206;-86
2022/12/03 03:00:22;;;;;;;26.93;16.00;;;2.90;99.90;;;;;;4997907;28;20210;-86
2022/12/03 03:02:49;;;;;;;24.67;14.50;;;2.90;99.90;;;;;;4998013;28;20181;-86
2022/12/03 03:05:19;;;;;;;25.47;14.50;;;2.90;99.90;;;;;;4997845;28;20234;-86
2022/12/03 03:07:46;;;;;;;24.20;15.03;;;2.90;99.90;;;;;;4997419;28;20187;-86
2022/12/03 03:10:15;;;;;;;21.97;14.40;;;2.90;99.90;;;;;;4997903;28;20182;-86
2022/12/03 03:12:41;;;;;;;27.43;15.17;;;2.90;99.90;;;;;;4997550;28;20206;-86
2022/12/03 03:15:10;;;;;;;26.27;15.13;;;2.90;99.90;;;;;;4995896;28;20202;-86
2022/12/03 03:17:36;;;;;;;26.63;15.63;;;2.90;99.90;;;;;;5013494;28;20354;-86
2022/12/03 03:20:05;;;;;;;24.53;14.77;;;2.80;99.90;;;;;;5013556;28;20215;-86
2022/12/03 03:22:33;;;;;;;27.00;15.87;;;2.70;99.90;;;;;;5013900;28;20218;-86
2022/12/03 03:24:59;;;;;;;24.50;14.67;;;2.70;99.90;;;;;;5013731;28;20175;-86
2022/12/03 03:27:25;;;;;;;27.17;15.20;;;2.70;99.90;;;;;;5013553;28;20333;-86
2022/12/03 03:29:52;;;;;;;27.57;15.90;;;2.80;99.90;;;;;;4999635;28;20180;-86
2022/12/03 03:32:18;;;;;;;27.23;15.37;;;2.80;99.90;;;;;;4978236;28;20252;-86
2022/12/03 03:34:44;;;;;;;25.27;14.63;;;2.70;99.90;;;;;;4990519;28;20187;-86
2022/12/03 03:37:10;;;;;;;25.90;14.80;;;2.70;99.90;;;;;;5012511;28;20698;-86
2022/12/03 03:39:36;;;;;;;28.33;16.07;;;2.70;99.90;;;;;;4996888;28;20175;-86
2022/12/03 03:42:02;;;;;;;31.37;17.40;;;2.70;99.90;;;;;;4997263;28;20263;-86
2022/12/03 03:44:28;;;;;;;30.27;16.20;;;2.70;99.90;;;;;;4997282;28;20171;-86
2022/12/03 03:46:56;;;;;;;25.90;15.17;;;2.70;99.90;;;;;;4996774;28;20191;-86
2022/12/03 03:49:22;;;;;;;29.57;16.80;;;2.70;99.90;;;;;;4996859;28;20191;-86
2022/12/03 03:51:48;;;;;;;29.77;16.13;;;2.70;99.90;;;;;;4996875;28;20214;-86
2022/12/03 03:54:14;;;;;;;30.47;15.97;;;2.80;99.90;;;;;;4996780;28;20284;-86
2022/12/03 03:56:40;;;;;;;25.57;15.07;;;2.80;99.90;;;;;;4996548;28;20286;-86
2022/12/03 03:59:06;;;;;;;27.13;15.63;;;2.80;99.90;;;;;;4997051;28;20274;-86
2022/12/03 04:01:33;;;;;;;31.63;16.83;;;2.80;99.90;;;;;;5013094;28;20444;-86
2022/12/03 04:03:59;;;;;;;28.93;16.23;;;2.80;99.90;;;;;;5013268;28;20175;-86
2022/12/03 04:06:26;;;;;;;28.60;16.67;;;2.80;99.90;;;;;;4993930;28;20220;-86
2022/12/03 04:08:52;;;;;;;31.70;16.77;;;2.80;99.90;;;;;;4996292;28;20270;-86
2022/12/03 04:14:02;;;;;;;29.93;16.27;;;2.90;99.90;;;;;;5013063;28;20187;-86
2022/12/03 04:16:28;;;;;;;29.17;15.53;;;2.80;99.90;;;;;;4996729;28;20210;-86
2022/12/03 04:18:54;;;;;;;31.47;16.37;;;2.80;99.90;;;;;;5012496;28;20179;-86
2022/12/03 04:24:09;;;;;;;29.13;16.17;;;2.80;99.90;;;;;;5012687;28;20174;-86
2022/12/03 04:29:21;;;;;;;29.43;16.83;;;2.90;99.90;;;;;;4993170;28;20168;-86
2022/12/03 04:37:16;;;;;;;28.77;16.23;;;3.00;99.90;;;;;;5028760;28;20208;-86
2022/12/03 04:39:41;;;;;;;26.87;16.20;;;3.00;99.90;;;;;;4996040;28;20632;-86
2022/12/03 04:42:07;;;;;;;26.90;16.13;;;3.00;99.90;;;;;;5011476;28;20182;-86
2022/12/03 04:44:37;;;;;;;28.40;15.50;;;3.00;99.90;;;;;;4995110;28;20609;-86
2022/12/03 04:47:08;;;;;;;27.50;15.57;;;3.00;99.90;;;;;;5011790;28;20198;-86
2022/12/03 04:49:37;;;;;;;27.17;15.33;;;3.10;99.90;;;;;;5012255;28;20652;-86
2022/12/03 04:52:03;;;;;;;27.53;15.30;;;3.10;99.90;;;;;;5012396;28;20210;-86
2022/12/03 04:54:29;;;;;;;25.37;15.40;;;3.10;99.90;;;;;;4992437;28;20188;-86
2022/12/03 04:56:55;;;;;;;23.60;15.40;;;3.10;99.90;;;;;;4992319;28;20191;-86
2022/12/03 04:59:21;;;;;;;26.20;14.93;;;3.10;99.90;;;;;;4976456;28;20191;-86
2022/12/03 05:01:47;;;;;;;24.70;14.37;;;3.10;99.90;;;;;;4976282;28;20215;-86
2022/12/03 05:04:14;;;;;;;24.90;15.30;;;3.10;99.90;;;;;;4975982;28;20343;-88
2022/12/03 05:06:40;;;;;;;23.67;14.07;;;3.10;99.90;;;;;;4975966;28;20239;-86
2022/12/03 05:09:06;;;;;;;24.77;14.13;;;3.10;99.90;;;;;;4991751;28;20319;-86
2022/12/03 05:11:32;;;;;;;24.27;13.93;;;3.10;99.90;;;;;;5000028;28;20269;-86
2022/12/03 05:13:58;;;;;;;21.37;13.13;;;3.10;99.90;;;;;;5007897;28;20188;-86
2022/12/03 05:16:24;;;;;;;24.50;14.00;;;3.20;99.90;;;;;;5001544;28;20206;-86
2022/12/03 05:18:50;;;;;;;21.80;13.40;;;3.20;99.90;;;;;;5004110;28;20262;-86
2022/12/03 05:21:16;;;;;;;22.73;13.33;;;3.20;99.90;;;;;;4991902;28;20306;-86
2022/12/03 05:23:43;;;;;;;20.40;12.47;;;3.20;99.90;;;;;;4991505;28;20196;-86
2022/12/03 05:26:09;;;;;;;21.30;13.47;;;3.20;99.90;;;;;;5000765;28;20199;-86
2022/12/03 05:28:35;;;;;;;25.00;14.77;;;3.20;99.90;;;;;;4995473;28;20180;-86
2022/12/03 05:31:01;;;;;;;19.13;11.80;;;3.20;99.90;;;;;;4995429;28;20182;-86
2022/12/03 05:33:27;;;;;;;18.53;11.43;;;3.20;99.90;;;;;;4995541;28;20189;-86
2022/12/03 05:35:53;;;;;;;19.07;12.07;;;3.20;99.90;;;;;;4995477;28;20293;-86
2022/12/03 05:38:19;;;;;;;17.23;11.00;;;3.20;99.90;;;;;;5011584;28;20207;-86
2022/12/03 05:40:44;;;;;;;17.90;12.00;;;3.20;99.90;;;;;;5011628;28;20284;-86
2022/12/03 05:43:10;;;;;;;18.43;11.50;;;3.20;99.90;;;;;;5012166;28;20171;-85
2022/12/03 05:45:38;;;;;;;21.20;12.87;;;3.20;99.90;;;;;;5011692;28;20227;-86
2022/12/03 05:48:07;;;;;;;22.57;14.17;;;3.20;99.90;;;;;;5011728;28;20188;-86
2022/12/03 05:50:35;;;;;;;31.20;17.93;;;3.20;99.90;;;;;;5011846;28;20217;-86
2022/12/03 05:53:13;;;;;;;34.07;20.30;;;3.20;99.90;;;;;;5013107;28;20171;-86
2022/12/03 05:55:40;;;;;;;25.87;15.40;;;3.30;99.90;;;;;;5009714;28;20680;-86
2022/12/03 05:58:06;;;;;;;29.93;16.37;;;3.30;99.90;;;;;;5011494;28;20187;-86
2022/12/03 06:00:36;;;;;;;22.80;14.47;;;3.20;99.90;;;;;;5011378;28;20211;-86
2022/12/03 06:03:04;;;;;;;24.87;16.87;;;3.20;99.90;;;;;;5011759;28;20172;-86
2022/12/03 06:05:30;;;;;;;35.50;21.13;;;3.20;99.90;;;;;;5008246;28;20191;-86
2022/12/03 06:07:56;;;;;;;23.70;14.70;;;3.20;99.90;;;;;;4991800;28;20176;-86
2022/12/03 06:10:24;;;;;;;21.47;12.77;;;3.20;99.90;;;;;;4992096;28;20180;-86
2022/12/03 06:12:51;;;;;;;20.27;12.83;;;3.10;99.90;;;;;;4992281;28;20210;-86
2022/12/03 06:15:17;;;;;;;18.90;11.77;;;3.20;99.90;;;;;;4992435;28;20283;-86
2022/12/03 06:17:43;;;;;;;20.37;11.80;;;3.10;99.90;;;;;;4995357;28;20180;-86
2022/12/03 06:20:13;;;;;;;19.53;12.73;;;3.10;99.90;;;;;;4995389;28;20214;-86
2022/12/03 06:22:40;;;;;;;20.63;13.40;;;3.10;99.90;;;;;;4995360;28;20234;-86
2022/12/03 06:25:06;;;;;;;19.83;12.67;;;3.10;99.90;;;;;;4995228;28;20209;-86
2022/12/03 06:27:32;;;;;;;21.10;13.20;;;3.20;99.90;;;;;;5011328;28;20196;-86
2022/12/03 06:29:58;;;;;;;19.43;12.47;;;3.20;99.90;;;;;;4995142;28;20199;-86
2022/12/03 06:32:24;;;;;;;19.37;12.37;;;3.20;99.90;;;;;;4995102;28;20180;-86
2022/12/03 06:34:49;;;;;;;20.00;13.80;;;3.20;99.90;;;;;;5001692;28;20326;-86
2022/12/03 06:37:15;;;;;;;20.43;12.80;;;3.20;99.90;;;;;;5014750;28;20207;-86
2022/12/03 06:39:41;;;;;;;20.53;12.30;;;3.20;99.90;;;;;;5014528;28;20269;-85
2022/12/03 06:42:07;;;;;;;23.10;15.90;;;3.20;99.90;;;;;;5014478;28;20183;-86
2022/12/03 06:44:33;;;;;;;21.83;14.30;;;3.20;99.90;;;;;;5014251;28;20214;-86
2022/12/03 06:46:59;;;;;;;22.70;13.70;;;3.20;99.90;;;;;;5013824;28;20269;-86
2022/12/03 06:49:25;;;;;;;20.90;13.13;;;3.10;99.90;;;;;;5014195;28;20309;-86
2022/12/03 06:51:51;;;;;;;23.23;14.27;;;3.10;99.90;;;;;;5014589;28;20222;-86
2022/12/03 06:54:17;;;;;;;20.97;13.20;;;3.10;99.90;;;;;;5013737;28;20194;-86
2022/12/03 06:56:42;;;;;;;22.43;13.07;;;3.10;99.90;;;;;;5013956;28;20203;-86
2022/12/03 06:59:08;;;;;;;21.83;13.43;;;3.10;99.90;;;;;;5014145;28;20215;-86
2022/12/03 07:01:34;;;;;;;21.63;12.70;;;3.10;99.90;;;;;;5014172;28;20206;-86
2022/12/03 07:04:00;;;;;;;21.37;13.17;;;3.10;99.90;;;;;;4997653;28;20186;-84
2022/12/03 07:06:26;;;;;;;21.87;13.43;;;3.10;99.90;;;;;;5014415;28;20199;-86
2022/12/03 07:08:56;;;;;;;23.83;13.90;;;3.10;99.90;;;;;;5013606;28;20182;-86
2022/12/03 07:11:30;;;;;;;22.00;13.37;;;3.20;99.90;;;;;;5006506;28;20183;-86
2022/12/03 07:14:00;;;;;;;21.67;13.73;;;3.20;99.90;;;;;;5000075;28;20675;-87
2022/12/03 07:16:27;;;;;;;19.27;12.70;;;3.20;99.90;;;;;;4997531;28;20203;-86
2022/12/03 07:18:53;;;;;;;20.30;12.67;;;3.20;99.90;;;;;;4997376;28;20187;-86
2022/12/03 07:21:21;;;;;;;20.70;12.93;;;3.20;99.90;;;;;;4997739;28;20210;-86
2022/12/03 07:23:47;;;;;;;22.27;13.43;;;3.20;99.90;;;;;;5010603;28;20172;-87
2022/12/03 07:26:14;;;;;;;21.70;13.47;;;3.10;99.90;;;;;;5005425;28;20348;-86
2022/12/03 07:28:48;;;;;;;23.67;14.97;;;3.10;99.90;;;;;;5009651;28;20175;-86
2022/12/03 07:31:14;;;;;;;23.50;15.13;;;3.10;99.90;;;;;;4983056;28;20180;-86
2022/12/03 07:33:40;;;;;;;40.90;27.17;;;3.10;99.90;;;;;;4996142;28;20197;-86
2022/12/03 07:36:06;;;;;;;75.00;49.17;;;3.10;99.90;;;;;;4996112;28;20217;-85
2022/12/03 07:38:32;;;;;;;54.43;36.37;;;3.00;99.90;;;;;;4987892;28;20279;-86
2022/12/03 07:40:58;;;;;;;31.90;18.97;;;3.10;99.90;;;;;;5009091;28;20617;-86
2022/12/03 07:43:24;;;;;;;23.63;14.23;;;3.10;99.90;;;;;;5003675;28;20198;-86
2022/12/03 07:45:50;;;;;;;27.67;18.50;;;3.10;99.90;;;;;;4995279;28;20291;-86
2022/12/03 07:48:16;;;;;;;25.30;16.70;;;3.20;99.90;;;;;;5003271;28;20203;-86
2022/12/03 07:50:42;;;;;;;23.10;14.93;;;3.10;99.90;;;;;;5002850;28;20222;-86
2022/12/03 07:53:08;;;;;;;23.13;14.43;;;3.10;99.90;;;;;;5002630;28;20176;-86
2022/12/03 07:55:34;;;;;;;23.87;14.63;;;3.10;99.90;;;;;;4987103;28;20216;-88
2022/12/03 07:58:00;;;;;;;24.70;14.67;;;3.10;99.90;;;;;;5000460;28;20183;-86
2022/12/03 08:00:26;;;;;;;26.97;15.93;;;3.10;99.90;;;;;;5010400;28;20195;-86
2022/12/03 08:02:51;;;;;;;24.17;14.83;;;3.10;99.90;;;;;;5005312;28;20229;-86
2022/12/03 08:05:17;;;;;;;25.87;15.83;;;3.00;99.90;;;;;;5002736;28;20184;-86
2022/12/03 08:07:43;;;;;;;23.87;14.93;;;3.10;99.90;;;;;;5006246;28;20443;-86
2022/12/03 08:10:09;;;;;;;24.07;14.70;;;3.00;99.90;;;;;;5003276;28;20237;-86
2022/12/03 08:12:40;;;;;;;23.30;14.87;;;3.10;99.90;;;;;;4994155;28;20274;-86
2022/12/03 08:15:23;;;;;;;27.40;16.17;;;3.10;99.90;;;;;;5010986;28;20188;-86
2022/12/03 08:17:57;;;;;;;23.63;14.90;;;3.10;99.90;;;;;;4994192;28;20175;-86
2022/12/03 08:20:27;;;;;;;25.23;15.10;;;3.20;99.90;;;;;;5003690;28;20199;-86
2022/12/03 08:23:13;;;;;;;22.27;13.83;;;3.20;99.90;;;;;;4998144;28;20190;-87
2022/12/03 08:25:48;;;;;;;28.13;16.53;;;3.30;99.90;;;;;;5003479;28;20211;-87
2022/12/03 08:28:25;;;;;;;24.37;15.40;;;3.30;99.90;;;;;;4990080;28;20731;-87
2022/12/03 08:31:16;;;;;;;24.73;16.00;;;3.30;99.90;;;;;;5020412;28;20187;-86
2022/12/03 08:33:43;;;;;;;25.40;15.17;;;3.40;99.90;;;;;;4992195;28;20173;-86
2022/12/03 08:36:28;;;;;;;26.20;15.50;;;3.40;99.90;;;;;;5008585;28;20228;-87
2022/12/03 08:38:57;;;;;;;24.13;14.80;;;3.40;99.90;;;;;;5007897;28;20183;-87
2022/12/03 08:47:31;;;;;;;25.10;15.47;;;3.50;99.90;;;;;;5025082;28;20210;-87
2022/12/03 08:50:12;;;;;;;23.50;14.17;;;3.50;99.90;;;;;;4985468;28;20180;-87
2022/12/03 08:52:38;;;;;;;24.57;14.47;;;3.50;99.90;;;;;;4999644;28;20211;-87
2022/12/03 08:55:34;;;;;;;20.97;13.43;;;3.50;99.90;;;;;;5001136;28;20230;-87
2022/12/03 08:58:21;;;;;;;22.50;15.27;;;3.50;99.90;;;;;;5000945;28;20187;-87
2022/12/03 09:00:52;;;;;;;31.00;16.10;;;3.50;99.90;;;;;;4976108;28;20196;-87
2022/12/03 09:03:18;;;;;;;23.93;15.60;;;3.50;99.90;;;;;;5003128;28;20183;-87
2022/12/03 09:05:44;;;;;;;23.50;15.03;;;3.50;99.90;;;;;;4995497;28;20225;-87
2022/12/03 09:08:10;;;;;;;26.00;16.17;;;3.50;99.90;;;;;;4995299;28;20183;-87
2022/12/03 09:10:36;;;;;;;24.83;15.23;;;3.50;99.90;;;;;;4995730;28;20183;-87
2022/12/03 09:13:02;;;;;;;22.97;14.83;;;3.50;99.90;;;;;;5011313;28;20194;-87
2022/12/03 09:15:28;;;;;;;24.07;14.93;;;3.60;99.90;;;;;;5011569;28;20199;-88
2022/12/03 09:17:54;;;;;;;23.77;14.20;;;3.60;99.90;;;;;;4995510;28;20274;-89
2022/12/03 09:20:20;;;;;;;29.20;15.47;;;3.70;99.90;;;;;;4988192;28;20207;-88
2022/12/03 09:22:46;;;;;;;26.70;15.10;;;3.70;99.90;;;;;;5001811;28;20180;-87
2022/12/03 09:25:11;;;;;;;24.33;14.73;;;3.70;99.90;;;;;;5009086;28;20183;-88
2022/12/03 09:27:37;;;;;;;23.53;14.47;;;3.80;99.90;;;;;;5000499;28;20206;-88
2022/12/03 09:30:04;;;;;;;24.87;14.67;;;3.80;99.90;;;;;;4992357;28;20218;-87
2022/12/03 09:32:30;;;;;;;22.30;13.70;;;3.90;99.90;;;;;;4992041;28;20185;-88
2022/12/03 09:34:56;;;;;;;23.80;14.77;;;3.90;99.90;;;;;;5002191;28;20207;-87
2022/12/03 09:37:28;;;;;;;23.27;14.03;;;4.00;99.90;;;;;;4991818;28;20290;-90
2022/12/03 09:39:54;;;;;;;23.23;14.27;;;4.00;99.90;;;;;;5003433;28;20180;-87
2022/12/03 09:42:19;;;;;;;25.67;14.37;;;4.10;99.90;;;;;;5008546;28;20187;-87
2022/12/03 09:44:45;;;;;;;24.90;15.50;;;4.00;99.90;;;;;;5001312;28;20176;-84
2022/12/03 09:47:12;;;;;;;25.27;15.37;;;4.00;99.90;;;;;;5001027;28;20208;-88
2022/12/03 09:49:39;;;;;;;25.20;14.83;;;4.10;99.90;;;;;;5005003;28;20185;-87
2022/12/03 09:52:06;;;;;;;24.27;14.87;;;4.10;99.90;;;;;;4996234;28;20179;-88
2022/12/03 09:54:33;;;;;;;25.20;16.23;;;4.10;99.90;;;;;;4995932;28;20188;-88
2022/12/03 09:57:01;;;;;;;25.63;16.60;;;4.10;99.90;;;;;;4985595;28;20282;-88
2022/12/03 09:59:33;;;;;;;29.37;15.93;;;4.10;99.90;;;;;;4993632;28;20176;-87
2022/12/03 10:02:00;;;;;;;26.13;15.47;;;4.10;99.90;;;;;;5013105;28;20206;-88
2022/12/03 10:04:27;;;;;;;23.63;15.13;;;4.10;99.90;;;;;;5015159;28;20266;-87
2022/12/03 10:06:56;;;;;;;23.97;14.47;;;4.10;99.90;;;;;;5014696;28;20290;-87
2022/12/03 10:09:27;;;;;;;25.87;16.23;;;4.10;99.90;;;;;;4998994;28;20206;-87
2022/12/03 10:11:59;;;;;;;23.93;15.13;;;4.10;99.90;;;;;;5014837;28;20179;-87
2022/12/03 10:14:26;;;;;;;29.57;15.03;;;4.00;99.90;;;;;;4979272;28;20202;-79
2022/12/03 10:16:52;;;;;;;23.77;14.73;;;4.00;99.90;;;;;;4995602;28;20196;-88
2022/12/03 10:19:28;;;;;;;24.23;14.50;;;4.00;99.90;;;;;;5011804;28;20187;-87
2022/12/03 10:21:54;;;;;;;22.87;13.67;;;3.90;99.90;;;;;;5011889;28;20211;-87
2022/12/03 10:24:27;;;;;;;25.63;14.97;;;4.00;99.90;;;;;;5003847;28;20172;-87
2022/12/03 10:26:59;;;;;;;22.03;12.97;;;4.00;99.90;;;;;;5005760;28;20558;-87
2022/12/03 10:29:31;;;;;;;19.03;12.23;;;4.00;99.90;;;;;;4985017;28;20620;-88
2022/12/03 10:32:06;;;;;;;18.77;11.80;;;4.00;99.90;;;;;;4994926;28;20176;-87
2022/12/03 10:34:38;;;;;;;19.53;11.17;;;4.00;99.90;;;;;;4999740;28;20266;-87
2022/12/03 10:37:20;;;;;;;16.97;10.73;;;4.00;99.90;;;;;;5008902;28;20203;-87
2022/12/03 10:39:52;;;;;;;19.03;11.83;;;4.00;99.90;;;;;;5013646;28;20259;-88
2022/12/03 10:42:20;;;;;;;22.13;12.47;;;4.00;99.90;;;;;;4997290;28;20183;-87
2022/12/03 10:44:46;;;;;;;19.77;12.20;;;4.10;99.90;;;;;;5013824;28;20180;-87
2022/12/03 10:47:13;;;;;;;18.87;11.37;;;4.10;99.90;;;;;;4987492;28;20196;-87
2022/12/03 10:49:41;;;;;;;19.27;11.20;;;4.10;99.90;;;;;;5003631;28;20207;-87
2022/12/03 10:52:21;;;;;;;20.77;12.03;;;4.10;99.90;;;;;;4995274;28;20195;-87
2022/12/03 10:54:48;;;;;;;18.00;11.43;;;4.00;99.90;;;;;;5002713;28;20199;-87
2022/12/03 10:57:14;;;;;;;18.63;11.67;;;4.00;99.90;;;;;;5008309;28;20290;-87
2022/12/03 10:59:41;;;;;;;18.17;11.53;;;4.00;99.90;;;;;;4996496;28;20319;-87
2022/12/03 11:02:22;;;;;;;20.47;12.70;;;4.10;99.90;;;;;;5000649;28;20210;-88
2022/12/03 11:04:49;;;;;;;17.27;10.90;;;4.10;99.90;;;;;;5004867;28;20199;-88
2022/12/03 11:07:18;;;;;;;20.33;11.50;;;4.10;99.90;;;;;;5004481;28;20286;-88
2022/12/03 11:09:50;;;;;;;20.63;11.17;;;4.00;99.90;;;;;;5010724;28;20180;-87
2022/12/03 11:12:22;;;;;;;18.40;11.10;;;4.00;99.90;;;;;;4994810;28;20184;-88
2022/12/03 11:14:51;;;;;;;17.07;10.37;;;4.00;99.90;;;;;;4996331;28;20203;-87
2022/12/03 11:17:43;;;;;;;17.63;10.67;;;4.00;99.90;;;;;;4997557;28;20676;-87
2022/12/03 11:20:24;;;;;;;16.27;10.17;;;4.00;99.90;;;;;;4997580;28;20207;-87
2022/12/03 11:22:52;;;;;;;15.90;9.97;;;4.10;99.90;;;;;;5013859;28;20182;-88
2022/12/03 11:25:24;;;;;;;18.33;11.20;;;4.10;99.90;;;;;;4993744;28;20172;-87
2022/12/03 11:28:12;;;;;;;17.70;10.43;;;4.00;99.90;;;;;;5005542;28;20190;-88
2022/12/03 11:30:57;;;;;;;17.40;9.40;;;4.00;99.90;;;;;;5013217;28;20202;-88
2022/12/03 11:33:39;;;;;;;15.57;9.87;;;4.10;99.90;;;;;;5000662;28;20183;-87
2022/12/03 11:36:05;;;;;;;15.57;9.73;;;4.00;99.90;;;;;;5006929;28;20234;-87
2022/12/03 11:39:02;;;;;;;16.27;10.23;;;4.10;99.90;;;;;;4993759;28;20206;-88
2022/12/03 11:41:31;;;;;;;15.57;10.23;;;4.00;99.90;;;;;;5010630;28;20210;-88
2022/12/03 11:44:00;;;;;;;17.40;10.03;;;3.90;99.90;;;;;;5013170;28;20178;-87
2022/12/03 11:46:35;;;;;;;17.70;11.00;;;3.90;99.90;;;;;;5013132;28;20263;-88
2022/12/03 11:49:20;;;;;;;18.37;10.77;;;4.00;99.90;;;;;;5008005;28;20656;-88
2022/12/03 11:51:46;;;;;;;18.10;10.53;;;4.00;99.90;;;;;;5007118;28;20187;-88
2022/12/03 11:54:16;;;;;;;18.27;10.67;;;3.90;99.90;;;;;;5012597;28;20191;-87
2022/12/03 11:56:56;;;;;;;18.00;10.53;;;3.80;99.90;;;;;;4984151;28;20211;-88
2022/12/03 11:59:22;;;;;;;19.13;10.93;;;3.90;99.90;;;;;;4996122;28;20395;-76
2022/12/03 12:01:52;;;;;;;19.50;11.03;;;3.90;99.90;;;;;;5003823;28;20203;-88
2022/12/03 12:04:36;;;;;;;16.23;10.30;;;3.90;99.90;;;;;;5013571;28;20176;-88
2022/12/03 12:07:06;;;;;;;16.77;9.97;;;3.90;99.90;;;;;;4998456;28;20664;-88
2022/12/03 12:09:53;;;;;;;18.47;10.07;;;3.90;99.90;;;;;;5002302;28;20207;-88
2022/12/03 12:12:35;;;;;;;18.13;9.80;;;3.90;99.90;;;;;;5011792;28;20242;-88
2022/12/03 12:15:36;;;;;;;18.67;10.43;;;4.00;99.90;;;;;;5003841;28;20649;-88
2022/12/03 12:18:41;;;;;;;15.63;9.53;;;4.00;99.90;;;;;;4977159;28;20176;-88
2022/12/03 12:21:41;;;;;;;16.17;9.63;;;4.00;99.90;;;;;;5024020;28;20203;-88
2022/12/03 12:24:58;;;;;;;16.30;10.13;;;4.00;99.90;;;;;;5004656;28;20633;-88
2022/12/03 12:27:44;;;;;;;17.87;9.67;;;4.00;99.90;;;;;;5012086;28;20195;-88
2022/12/03 12:30:21;;;;;;;18.47;10.80;;;4.00;99.90;;;;;;4972860;28;20194;-88
2022/12/03 12:32:56;;;;;;;18.47;10.43;;;4.00;99.90;;;;;;4976890;28;20195;-88
2022/12/03 12:35:32;;;;;;;16.67;10.67;;;3.90;99.90;;;;;;5004124;28;20175;-88
2022/12/03 12:38:10;;;;;;;16.20;9.83;;;3.80;99.90;;;;;;5028479;28;20187;-88
2022/12/03 12:40:38;;;;;;;17.00;9.70;;;3.80;99.90;;;;;;5028893;28;20195;-85
2022/12/03 12:43:18;;;;;;;19.03;10.37;;;3.80;99.90;;;;;;5026736;28;20167;-85
2022/12/03 12:45:45;;;;;;;19.97;9.73;;;3.90;99.90;;;;;;5005759;28;20270;-84
2022/12/03 12:48:19;;;;;;;15.27;9.57;;;3.90;99.90;;;;;;4986149;28;20187;-85
2022/12/03 12:51:00;;;;;;;16.13;9.90;;;3.80;99.90;;;;;;5008200;28;20183;-87
2022/12/03 12:53:34;;;;;;;15.83;8.93;;;3.60;99.90;;;;;;5006158;28;20195;-87
2022/12/03 12:56:21;;;;;;;16.00;9.57;;;3.70;99.90;;;;;;5003683;28;20218;-87
2022/12/03 12:58:47;;;;;;;15.87;9.23;;;3.60;99.90;;;;;;4988422;28;20191;-87
2022/12/03 13:01:22;;;;;;;16.07;9.33;;;3.60;99.90;;;;;;5001995;28;20194;-87
2022/12/03 13:03:50;;;;;;;15.00;9.27;;;3.60;99.90;;;;;;5012265;28;20170;-87
2022/12/03 13:06:18;;;;;;;17.03;9.33;;;3.60;99.90;;;;;;5012712;28;20285;-87
2022/12/03 13:08:47;;;;;;;15.43;8.77;;;3.70;99.90;;;;;;4999962;28;20184;-87
2022/12/03 13:11:40;;;;;;;15.13;8.73;;;3.70;99.90;;;;;;5001501;28;20190;-87